sensor_id;sensor_type;location;lat;lon;timestamp;pressure;altitude;pressure_sealevel;temperature;humidity
27685;BME280;46113;50.130;8.526;2023-05-12T00:00:17;98891.44;;;9.50;74.87
27685;BME280;46113;50.130;8.526;2023-05-12T00:02:45;98893.50;;;9.59;75.18
27685;BME280;46113;50.130;8.526;2023-05-12T00:05:12;98898.78;;;9.59;75.72
27685;BME280;46113;50.130;8.526;2023-05-12T00:07:39;98896.28;;;9.58;75.41
27685;BME280;46113;50.130;8.526;2023-05-12T00:10:05;98896.16;;;9.59;75.32
27685;BME280;46113;50.130;8.526;2023-05-12T00:12:32;98898.09;;;9.41;75.58
27685;BME280;46113;50.130;8.526;2023-05-12T00:14:59;98898.50;;;9.49;75.78
27685;BME280;46113;50.130;8.526;2023-05-12T00:17:26;98892.72;;;9.42;75.93
27685;BME280;46113;50.130;8.526;2023-05-12T00:23:47;98894.56;;;9.26;75.68
27685;BME280;46113;50.130;8.526;2023-05-12T00:26:14;98895.16;;;9.31;76.23
27685;BME280;46113;50.130;8.526;2023-05-12T00:28:42;98894.72;;;9.39;75.72
27685;BME280;46113;50.130;8.526;2023-05-12T00:31:08;98890.09;;;9.42;75.89
27685;BME280;46113;50.130;8.526;2023-05-12T00:33:35;98889.34;;;9.40;76.06
27685;BME280;46113;50.130;8.526;2023-05-12T00:36:02;98891.63;;;9.47;75.63
27685;BME280;46113;50.130;8.526;2023-05-12T00:38:29;98892.47;;;9.47;75.67
27685;BME280;46113;50.130;8.526;2023-05-12T00:40:56;98890.75;;;9.46;75.94
27685;BME280;46113;50.130;8.526;2023-05-12T00:43:23;98891.06;;;9.56;75.63
27685;BME280;46113;50.130;8.526;2023-05-12T00:45:49;98887.09;;;9.49;76.30
27685;BME280;46113;50.130;8.526;2023-05-12T00:48:16;98891.31;;;9.51;75.87
27685;BME280;46113;50.130;8.526;2023-05-12T00:50:43;98882.56;;;9.51;75.81
27685;BME280;46113;50.130;8.526;2023-05-12T00:53:11;98888.88;;;9.48;76.15
27685;BME280;46113;50.130;8.526;2023-05-12T00:55:38;98880.97;;;9.48;76.06
27685;BME280;46113;50.130;8.526;2023-05-12T00:58:04;98883.78;;;9.45;76.03
27685;BME280;46113;50.130;8.526;2023-05-12T01:00:33;98879.84;;;9.52;75.78
27685;BME280;46113;50.130;8.526;2023-05-12T01:03:00;98882.75;;;9.48;76.19
27685;BME280;46113;50.130;8.526;2023-05-12T01:05:35;98884.19;;;9.53;75.80
27685;BME280;46113;50.130;8.526;2023-05-12T01:08:04;98885.78;;;9.56;75.79
27685;BME280;46113;50.130;8.526;2023-05-12T01:10:32;98887.47;;;9.57;75.73
27685;BME280;46113;50.130;8.526;2023-05-12T01:12:59;98882.03;;;9.60;75.48
27685;BME280;46113;50.130;8.526;2023-05-12T01:15:28;98886.16;;;9.50;75.89
27685;BME280;46113;50.130;8.526;2023-05-12T01:17:59;98884.75;;;9.59;75.47
27685;BME280;46113;50.130;8.526;2023-05-12T01:20:29;98886.94;;;9.66;75.24
27685;BME280;46113;50.130;8.526;2023-05-12T01:22:58;98889.56;;;9.66;75.22
27685;BME280;46113;50.130;8.526;2023-05-12T01:25:30;98878.34;;;9.63;75.21
27685;BME280;46113;50.130;8.526;2023-05-12T01:27:59;98877.50;;;9.62;75.36
27685;BME280;46113;50.130;8.526;2023-05-12T01:30:27;98892.13;;;9.68;75.28
27685;BME280;46113;50.130;8.526;2023-05-12T01:32:55;98886.63;;;9.56;75.69
27685;BME280;46113;50.130;8.526;2023-05-12T01:35:23;98885.78;;;9.56;75.58
27685;BME280;46113;50.130;8.526;2023-05-12T01:37:57;98892.47;;;9.62;75.57
27685;BME280;46113;50.130;8.526;2023-05-12T01:40:24;98896.16;;;9.59;75.73
27685;BME280;46113;50.130;8.526;2023-05-12T01:42:51;98898.03;;;9.57;75.92
27685;BME280;46113;50.130;8.526;2023-05-12T01:45:17;98895.88;;;9.49;76.31
27685;BME280;46113;50.130;8.526;2023-05-12T01:47:45;98894.25;;;9.47;76.13
27685;BME280;46113;50.130;8.526;2023-05-12T01:50:12;98896.34;;;9.56;75.82
27685;BME280;46113;50.130;8.526;2023-05-12T01:52:39;98895.97;;;9.62;75.60
27685;BME280;46113;50.130;8.526;2023-05-12T01:55:10;98901.63;;;9.56;76.06
27685;BME280;46113;50.130;8.526;2023-05-12T01:57:52;98899.56;;;9.61;75.35
27685;BME280;46113;50.130;8.526;2023-05-12T02:00:19;98900.41;;;9.62;75.88
27685;BME280;46113;50.130;8.526;2023-05-12T02:02:49;98905.59;;;9.63;75.91
27685;BME280;46113;50.130;8.526;2023-05-12T02:05:16;98899.56;;;9.61;76.03
27685;BME280;46113;50.130;8.526;2023-05-12T02:07:47;98906.84;;;9.58;76.11
27685;BME280;46113;50.130;8.526;2023-05-12T02:10:13;98910.25;;;9.43;76.62
27685;BME280;46113;50.130;8.526;2023-05-12T02:12:40;98906.09;;;9.25;77.48
27685;BME280;46113;50.130;8.526;2023-05-12T02:15:07;98903.38;;;9.10;77.94
27685;BME280;46113;50.130;8.526;2023-05-12T02:17:38;98902.16;;;9.16;77.30
27685;BME280;46113;50.130;8.526;2023-05-12T02:20:06;98904.34;;;8.93;76.15
27685;BME280;46113;50.130;8.526;2023-05-12T02:22:33;98905.59;;;9.18;76.38
27685;BME280;46113;50.130;8.526;2023-05-12T02:24:59;98905.06;;;9.27;76.75
27685;BME280;46113;50.130;8.526;2023-05-12T02:27:26;98902.19;;;9.47;76.08
27685;BME280;46113;50.130;8.526;2023-05-12T02:29:54;98902.34;;;9.43;76.41
27685;BME280;46113;50.130;8.526;2023-05-12T02:32:20;98903.94;;;9.46;76.25
27685;BME280;46113;50.130;8.526;2023-05-12T02:34:48;98904.16;;;9.43;76.57
27685;BME280;46113;50.130;8.526;2023-05-12T02:37:15;98896.59;;;9.37;76.53
27685;BME280;46113;50.130;8.526;2023-05-12T02:39:42;98908.44;;;9.29;77.41
27685;BME280;46113;50.130;8.526;2023-05-12T02:42:09;98901.56;;;9.27;77.44
27685;BME280;46113;50.130;8.526;2023-05-12T02:44:36;98892.66;;;9.44;77.05
27685;BME280;46113;50.130;8.526;2023-05-12T02:47:03;98893.41;;;9.46;76.81
27685;BME280;46113;50.130;8.526;2023-05-12T02:49:30;98898.59;;;9.48;76.99
27685;BME280;46113;50.130;8.526;2023-05-12T02:51:57;98898.59;;;9.48;76.44
27685;BME280;46113;50.130;8.526;2023-05-12T02:54:24;98899.13;;;9.38;76.11
27685;BME280;46113;50.130;8.526;2023-05-12T02:56:51;98898.59;;;9.48;76.59
27685;BME280;46113;50.130;8.526;2023-05-12T02:59:18;98905.22;;;9.55;76.34
27685;BME280;46113;50.130;8.526;2023-05-12T03:01:45;98906.50;;;9.48;76.58
27685;BME280;46113;50.130;8.526;2023-05-12T03:04:12;98910.75;;;9.50;76.38
27685;BME280;46113;50.130;8.526;2023-05-12T03:06:39;98911.16;;;9.28;77.16
27685;BME280;46113;50.130;8.526;2023-05-12T03:09:06;98906.13;;;9.39;76.80
27685;BME280;46113;50.130;8.526;2023-05-12T03:11:33;98907.91;;;9.39;77.10
27685;BME280;46113;50.130;8.526;2023-05-12T03:14:00;98913.56;;;9.33;77.27
27685;BME280;46113;50.130;8.526;2023-05-12T03:16:27;98908.31;;;9.16;77.64
27685;BME280;46113;50.130;8.526;2023-05-12T03:18:54;98910.63;;;9.07;78.26
27685;BME280;46113;50.130;8.526;2023-05-12T03:21:21;98912.84;;;9.14;77.79
27685;BME280;46113;50.130;8.526;2023-05-12T03:23:47;98912.28;;;9.24;77.74
27685;BME280;46113;50.130;8.526;2023-05-12T03:26:14;98908.72;;;9.25;77.69
27685;BME280;46113;50.130;8.526;2023-05-12T03:28:40;98911.25;;;9.26;77.99
27685;BME280;46113;50.130;8.526;2023-05-12T03:31:07;98916.28;;;9.31;77.06
27685;BME280;46113;50.130;8.526;2023-05-12T03:33:34;98909.56;;;9.25;77.48
27685;BME280;46113;50.130;8.526;2023-05-12T03:36:01;98917.22;;;9.30;77.24
27685;BME280;46113;50.130;8.526;2023-05-12T03:38:28;98915.41;;;9.30;77.40
27685;BME280;46113;50.130;8.526;2023-05-12T03:41:04;98908.00;;;9.37;77.41
27685;BME280;46113;50.130;8.526;2023-05-12T03:43:33;98917.22;;;9.30;77.57
27685;BME280;46113;50.130;8.526;2023-05-12T03:45:59;98918.47;;;9.39;77.10
27685;BME280;46113;50.130;8.526;2023-05-12T03:48:26;98912.78;;;9.30;77.41
27685;BME280;46113;50.130;8.526;2023-05-12T03:50:53;98906.31;;;9.36;77.07
27685;BME280;46113;50.130;8.526;2023-05-12T03:53:20;98911.28;;;9.41;76.57
27685;BME280;46113;50.130;8.526;2023-05-12T03:55:47;98905.84;;;9.44;76.27
27685;BME280;46113;50.130;8.526;2023-05-12T03:58:13;98908.03;;;9.52;76.17
27685;BME280;46113;50.130;8.526;2023-05-12T04:00:40;98909.63;;;9.54;76.11
27685;BME280;46113;50.130;8.526;2023-05-12T04:03:07;98911.88;;;9.46;76.36
27685;BME280;46113;50.130;8.526;2023-05-12T04:05:34;98913.41;;;9.50;75.99
27685;BME280;46113;50.130;8.526;2023-05-12T04:08:03;98918.31;;;9.42;76.04
27685;BME280;46113;50.130;8.526;2023-05-12T04:10:30;98917.97;;;9.32;76.17
27685;BME280;46113;50.130;8.526;2023-05-12T04:12:56;98924.63;;;9.23;76.48
27685;BME280;46113;50.130;8.526;2023-05-12T04:15:24;98922.38;;;9.01;76.28
27685;BME280;46113;50.130;8.526;2023-05-12T04:17:50;98925.25;;;9.12;76.01
27685;BME280;46113;50.130;8.526;2023-05-12T04:20:18;98932.13;;;9.31;76.15
27685;BME280;46113;50.130;8.526;2023-05-12T04:22:45;98931.97;;;9.49;75.49
27685;BME280;46113;50.130;8.526;2023-05-12T04:25:13;98925.53;;;9.38;75.26
27685;BME280;46113;50.130;8.526;2023-05-12T04:27:40;98932.69;;;9.36;75.17
27685;BME280;46113;50.130;8.526;2023-05-12T04:30:07;98929.00;;;9.55;75.05
27685;BME280;46113;50.130;8.526;2023-05-12T04:32:36;98929.81;;;9.55;75.20
27685;BME280;46113;50.130;8.526;2023-05-12T04:35:04;98944.72;;;9.56;74.41
27685;BME280;46113;50.130;8.526;2023-05-12T04:37:31;98936.47;;;9.63;75.05
27685;BME280;46113;50.130;8.526;2023-05-12T04:39:58;98945.09;;;9.81;74.61
27685;BME280;46113;50.130;8.526;2023-05-12T04:42:25;98937.84;;;9.85;74.61
27685;BME280;46113;50.130;8.526;2023-05-12T04:44:52;98945.03;;;9.82;74.47
27685;BME280;46113;50.130;8.526;2023-05-12T04:47:19;98947.94;;;9.92;74.36
27685;BME280;46113;50.130;8.526;2023-05-12T04:49:45;98945.41;;;10.05;74.71
27685;BME280;46113;50.130;8.526;2023-05-12T04:52:13;98941.00;;;10.06;73.37
27685;BME280;46113;50.130;8.526;2023-05-12T04:54:40;98947.66;;;10.12;73.61
27685;BME280;46113;50.130;8.526;2023-05-12T04:57:07;98950.88;;;9.88;71.98
27685;BME280;46113;50.130;8.526;2023-05-12T04:59:34;98956.84;;;10.20;71.73
27685;BME280;46113;50.130;8.526;2023-05-12T05:02:01;98965.63;;;10.21;70.97
27685;BME280;46113;50.130;8.526;2023-05-12T05:04:28;98959.84;;;10.29;69.41
27685;BME280;46113;50.130;8.526;2023-05-12T05:06:55;98963.06;;;10.34;69.43
27685;BME280;46113;50.130;8.526;2023-05-12T05:09:22;98957.59;;;10.22;69.42
27685;BME280;46113;50.130;8.526;2023-05-12T05:11:49;98954.56;;;10.43;70.69
27685;BME280;46113;50.130;8.526;2023-05-12T05:14:15;98960.81;;;10.57;70.80
27685;BME280;46113;50.130;8.526;2023-05-12T05:16:43;98960.91;;;10.26;69.55
27685;BME280;46113;50.130;8.526;2023-05-12T05:19:11;98966.84;;;10.44;69.59
27685;BME280;46113;50.130;8.526;2023-05-12T05:21:55;98958.16;;;10.28;69.39
27685;BME280;46113;50.130;8.526;2023-05-12T05:24:22;98957.78;;;10.34;69.64
27685;BME280;46113;50.130;8.526;2023-05-12T05:26:49;98965.34;;;10.11;68.73
27685;BME280;46113;50.130;8.526;2023-05-12T05:29:16;98966.50;;;10.36;69.06
27685;BME280;46113;50.130;8.526;2023-05-12T05:31:43;98965.63;;;10.50;69.50
27685;BME280;46113;50.130;8.526;2023-05-12T05:34:10;98969.41;;;10.46;70.28
27685;BME280;46113;50.130;8.526;2023-05-12T05:36:37;98970.81;;;10.37;70.33
27685;BME280;46113;50.130;8.526;2023-05-12T05:39:04;98964.59;;;10.38;70.58
27685;BME280;46113;50.130;8.526;2023-05-12T05:41:30;98968.81;;;10.12;70.08
27685;BME280;46113;50.130;8.526;2023-05-12T05:43:57;98959.47;;;10.35;69.96
27685;BME280;46113;50.130;8.526;2023-05-12T05:46:24;98965.53;;;10.52;69.32
27685;BME280;46113;50.130;8.526;2023-05-12T05:48:51;98964.03;;;10.33;69.53
27685;BME280;46113;50.130;8.526;2023-05-12T05:51:18;98966.91;;;10.57;69.77
27685;BME280;46113;50.130;8.526;2023-05-12T05:53:45;98962.03;;;10.37;69.42
27685;BME280;46113;50.130;8.526;2023-05-12T05:56:13;98967.97;;;10.55;69.12
27685;BME280;46113;50.130;8.526;2023-05-12T05:58:40;98967.00;;;10.70;67.65
27685;BME280;46113;50.130;8.526;2023-05-12T06:01:07;98967.06;;;10.83;67.73
27685;BME280;46113;50.130;8.526;2023-05-12T06:03:34;98967.13;;;10.69;68.77
27685;BME280;46113;50.130;8.526;2023-05-12T06:06:04;98973.59;;;10.92;68.10
27685;BME280;46113;50.130;8.526;2023-05-12T06:08:32;98965.72;;;10.48;69.24
27685;BME280;46113;50.130;8.526;2023-05-12T06:10:58;98982.91;;;10.41;68.70
27685;BME280;46113;50.130;8.526;2023-05-12T06:13:25;98981.09;;;10.42;69.50
27685;BME280;46113;50.130;8.526;2023-05-12T06:15:52;98984.22;;;10.63;69.04
27685;BME280;46113;50.130;8.526;2023-05-12T06:18:21;98987.59;;;10.65;68.82
27685;BME280;46113;50.130;8.526;2023-05-12T06:20:48;98991.00;;;10.09;69.48
27685;BME280;46113;50.130;8.526;2023-05-12T06:23:15;98993.34;;;9.99;69.02
27685;BME280;46113;50.130;8.526;2023-05-12T06:25:41;99005.13;;;9.93;70.47
27685;BME280;46113;50.130;8.526;2023-05-12T06:28:08;99005.09;;;10.24;69.85
27685;BME280;46113;50.130;8.526;2023-05-12T06:30:34;99000.84;;;10.21;70.27
27685;BME280;46113;50.130;8.526;2023-05-12T06:33:01;99000.28;;;10.31;70.05
27685;BME280;46113;50.130;8.526;2023-05-12T06:35:28;99009.34;;;10.41;69.94
27685;BME280;46113;50.130;8.526;2023-05-12T06:37:55;99005.94;;;10.54;69.95
27685;BME280;46113;50.130;8.526;2023-05-12T06:40:21;99011.16;;;10.55;70.19
27685;BME280;46113;50.130;8.526;2023-05-12T06:42:48;99018.22;;;10.40;69.57
27685;BME280;46113;50.130;8.526;2023-05-12T06:45:18;99011.13;;;10.26;70.32
27685;BME280;46113;50.130;8.526;2023-05-12T06:47:46;99012.38;;;10.49;69.33
27685;BME280;46113;50.130;8.526;2023-05-12T06:50:12;99022.06;;;10.05;69.10
27685;BME280;46113;50.130;8.526;2023-05-12T06:52:41;99013.22;;;10.50;69.23
27685;BME280;46113;50.130;8.526;2023-05-12T06:55:08;99011.41;;;10.51;68.67
27685;BME280;46113;50.130;8.526;2023-05-12T06:57:35;99010.19;;;10.56;67.84
27685;BME280;46113;50.130;8.526;2023-05-12T07:00:03;99015.66;;;10.68;68.06
27685;BME280;46113;50.130;8.526;2023-05-12T07:02:30;99015.56;;;10.84;68.04
27685;BME280;46113;50.130;8.526;2023-05-12T07:04:57;99018.66;;;10.91;69.03
27685;BME280;46113;50.130;8.526;2023-05-12T07:07:23;99016.53;;;10.97;68.79
27685;BME280;46113;50.130;8.526;2023-05-12T07:09:50;99018.28;;;11.11;68.43
27685;BME280;46113;50.130;8.526;2023-05-12T07:12:17;99020.44;;;11.19;68.77
27685;BME280;46113;50.130;8.526;2023-05-12T07:14:44;99013.44;;;11.18;69.99
27685;BME280;46113;50.130;8.526;2023-05-12T07:17:10;99018.03;;;11.29;68.56
27685;BME280;46113;50.130;8.526;2023-05-12T07:19:37;99017.25;;;11.41;67.89
27685;BME280;46113;50.130;8.526;2023-05-12T07:22:05;99019.97;;;11.67;67.42
27685;BME280;46113;50.130;8.526;2023-05-12T07:24:32;99012.28;;;11.90;65.69
27685;BME280;46113;50.130;8.526;2023-05-12T07:26:59;99003.63;;;12.14;64.31
27685;BME280;46113;50.130;8.526;2023-05-12T07:29:26;99009.47;;;12.45;63.14
27685;BME280;46113;50.130;8.526;2023-05-12T07:31:52;99004.69;;;13.14;62.96
27685;BME280;46113;50.130;8.526;2023-05-12T07:34:19;99005.81;;;13.72;59.20
27685;BME280;46113;50.130;8.526;2023-05-12T07:36:46;99011.66;;;14.36;57.11
27685;BME280;46113;50.130;8.526;2023-05-12T07:39:14;99013.53;;;13.75;55.95
27685;BME280;46113;50.130;8.526;2023-05-12T07:41:44;99004.88;;;13.84;56.88
27685;BME280;46113;50.130;8.526;2023-05-12T07:44:11;99008.59;;;13.46;57.38
27685;BME280;46113;50.130;8.526;2023-05-12T07:46:38;99003.09;;;13.96;56.31
27685;BME280;46113;50.130;8.526;2023-05-12T07:49:04;98997.50;;;14.35;56.66
27685;BME280;46113;50.130;8.526;2023-05-12T07:51:32;98994.34;;;14.30;56.47
27685;BME280;46113;50.130;8.526;2023-05-12T07:53:59;98993.66;;;14.62;55.87
27685;BME280;46113;50.130;8.526;2023-05-12T07:56:26;98997.09;;;15.20;54.87
27685;BME280;46113;50.130;8.526;2023-05-12T07:58:52;98991.34;;;14.57;54.51
27685;BME280;46113;50.130;8.526;2023-05-12T08:01:19;98991.31;;;15.15;54.34
27685;BME280;46113;50.130;8.526;2023-05-12T08:03:46;99002.97;;;15.35;54.34
27685;BME280;46113;50.130;8.526;2023-05-12T08:06:13;99001.09;;;15.14;54.04
27685;BME280;46113;50.130;8.526;2023-05-12T08:08:39;99000.28;;;14.91;54.17
27685;BME280;46113;50.130;8.526;2023-05-12T08:11:06;98997.50;;;14.58;54.96
27685;BME280;46113;50.130;8.526;2023-05-12T08:13:35;98997.50;;;14.58;55.36
27685;BME280;46113;50.130;8.526;2023-05-12T08:16:02;98993.16;;;14.23;55.75
27685;BME280;46113;50.130;8.526;2023-05-12T08:18:29;98994.97;;;14.34;55.04
27685;BME280;46113;50.130;8.526;2023-05-12T08:20:56;98999.94;;;14.73;55.60
27685;BME280;46113;50.130;8.526;2023-05-12T08:23:22;98999.44;;;14.44;55.20
27685;BME280;46113;50.130;8.526;2023-05-12T08:25:49;98996.41;;;14.38;55.19
27685;BME280;46113;50.130;8.526;2023-05-12T08:28:16;99001.88;;;14.59;57.11
27685;BME280;46113;50.130;8.526;2023-05-12T08:30:43;98989.75;;;14.55;56.10
27685;BME280;46113;50.130;8.526;2023-05-12T08:33:11;99003.84;;;15.24;56.05
27685;BME280;46113;50.130;8.526;2023-05-12T08:35:38;99007.13;;;15.28;54.00
27685;BME280;46113;50.130;8.526;2023-05-12T08:38:05;99006.56;;;14.78;52.91
27685;BME280;46113;50.130;8.526;2023-05-12T08:40:36;99002.06;;;14.90;54.32
27685;BME280;46113;50.130;8.526;2023-05-12T08:43:14;99011.16;;;13.47;55.83
27685;BME280;46113;50.130;8.526;2023-05-12T08:45:44;99001.16;;;14.57;56.73
27685;BME280;46113;50.130;8.526;2023-05-12T08:48:12;99008.06;;;14.01;56.23
27685;BME280;46113;50.130;8.526;2023-05-12T08:50:41;99012.75;;;14.22;57.09
27685;BME280;46113;50.130;8.526;2023-05-12T08:53:12;99018.72;;;14.01;55.67
27685;BME280;46113;50.130;8.526;2023-05-12T08:55:42;99023.94;;;13.78;56.04
27685;BME280;46113;50.130;8.526;2023-05-12T08:58:30;99021.06;;;13.57;55.60
27685;BME280;46113;50.130;8.526;2023-05-12T09:01:07;99022.06;;;13.91;56.14
27685;BME280;46113;50.130;8.526;2023-05-12T09:03:34;99019.91;;;13.97;56.13
27685;BME280;46113;50.130;8.526;2023-05-12T09:06:01;99029.91;;;13.33;56.66
27685;BME280;46113;50.130;8.526;2023-05-12T09:08:31;99013.91;;;13.46;56.54
27685;BME280;46113;50.130;8.526;2023-05-12T09:11:00;99023.84;;;13.79;57.10
27685;BME280;46113;50.130;8.526;2023-05-12T09:13:37;99010.81;;;13.88;56.19
27685;BME280;46113;50.130;8.526;2023-05-12T09:16:10;98996.66;;;14.35;54.55
27685;BME280;46113;50.130;8.526;2023-05-12T09:18:47;99003.41;;;14.96;53.33
27685;BME280;46113;50.130;8.526;2023-05-12T09:21:15;98999.72;;;15.64;52.03
27685;BME280;46113;50.130;8.526;2023-05-12T09:24:00;98995.34;;;15.96;48.75
27685;BME280;46113;50.130;8.526;2023-05-12T09:26:43;98990.00;;;16.48;51.79
27685;BME280;46113;50.130;8.526;2023-05-12T09:29:11;98994.88;;;16.12;48.03
27685;BME280;46113;50.130;8.526;2023-05-12T09:31:55;98987.19;;;15.76;49.70
27685;BME280;46113;50.130;8.526;2023-05-12T09:34:32;99007.44;;;15.34;50.91
27685;BME280;46113;50.130;8.526;2023-05-12T09:37:03;99013.94;;;14.40;51.55
27685;BME280;46113;50.130;8.526;2023-05-12T09:39:31;99009.22;;;14.21;52.81
27685;BME280;46113;50.130;8.526;2023-05-12T09:41:58;99019.28;;;14.40;53.70
27685;BME280;46113;50.130;8.526;2023-05-12T09:44:25;99017.56;;;14.16;53.80
27685;BME280;46113;50.130;8.526;2023-05-12T09:46:54;99007.91;;;14.73;53.16
27685;BME280;46113;50.130;8.526;2023-05-12T09:49:22;99003.50;;;15.29;51.85
27685;BME280;46113;50.130;8.526;2023-05-12T09:51:55;99012.31;;;15.62;51.89
27685;BME280;46113;50.130;8.526;2023-05-12T09:54:28;99012.09;;;15.21;50.40
27685;BME280;46113;50.130;8.526;2023-05-12T09:56:58;99013.88;;;15.43;52.38
27685;BME280;46113;50.130;8.526;2023-05-12T09:59:32;99012.66;;;15.36;51.20
27685;BME280;46113;50.130;8.526;2023-05-12T10:01:59;99009.81;;;15.60;50.49
27685;BME280;46113;50.130;8.526;2023-05-12T10:04:51;99009.94;;;15.59;50.03
27685;BME280;46113;50.130;8.526;2023-05-12T10:07:21;99003.16;;;15.55;50.06
27685;BME280;46113;50.130;8.526;2023-05-12T10:09:49;99016.63;;;15.74;50.33
27685;BME280;46113;50.130;8.526;2023-05-12T10:12:16;99012.94;;;15.21;50.65
27685;BME280;46113;50.130;8.526;2023-05-12T10:14:43;99022.66;;;14.88;49.93
27685;BME280;46113;50.130;8.526;2023-05-12T10:17:12;99022.44;;;15.03;50.18
27685;BME280;46113;50.130;8.526;2023-05-12T10:19:40;99012.13;;;15.54;49.60
27685;BME280;46113;50.130;8.526;2023-05-12T10:22:10;99025.47;;;14.98;48.82
27685;BME280;46113;50.130;8.526;2023-05-12T10:24:38;99019.97;;;15.22;47.89
27685;BME280;46113;50.130;8.526;2023-05-12T10:27:06;99018.72;;;15.71;47.30
27685;BME280;46113;50.130;8.526;2023-05-12T10:29:34;99022.03;;;15.84;48.05
27685;BME280;46113;50.130;8.526;2023-05-12T10:32:01;99029.03;;;15.64;46.75
27685;BME280;46113;50.130;8.526;2023-05-12T10:34:35;99022.56;;;14.55;47.58
27685;BME280;46113;50.130;8.526;2023-05-12T10:37:04;99033.34;;;15.00;48.73
27685;BME280;46113;50.130;8.526;2023-05-12T10:39:34;99022.09;;;15.40;46.59
27685;BME280;46113;50.130;8.526;2023-05-12T10:42:08;99025.19;;;15.57;47.20
27685;BME280;46113;50.130;8.526;2023-05-12T10:44:35;99011.75;;;15.80;46.99
27685;BME280;46113;50.130;8.526;2023-05-12T10:47:11;99021.13;;;15.74;47.73
27685;BME280;46113;50.130;8.526;2023-05-12T10:49:40;99031.13;;;16.67;48.03
27685;BME280;46113;50.130;8.526;2023-05-12T10:52:09;99019.09;;;16.51;46.93
27685;BME280;46113;50.130;8.526;2023-05-12T10:54:42;99024.78;;;16.37;47.33
27685;BME280;46113;50.130;8.526;2023-05-12T10:57:12;99023.50;;;16.10;47.41
27685;BME280;46113;50.130;8.526;2023-05-12T10:59:47;99039.78;;;15.74;47.47
27685;BME280;46113;50.130;8.526;2023-05-12T11:02:18;99032.41;;;15.66;48.35
27685;BME280;46113;50.130;8.526;2023-05-12T11:04:55;99027.03;;;15.77;48.34
27685;BME280;46113;50.130;8.526;2023-05-12T11:07:27;99023.50;;;14.89;48.98
27685;BME280;46113;50.130;8.526;2023-05-12T11:10:00;99033.56;;;14.62;49.75
27685;BME280;46113;50.130;8.526;2023-05-12T11:12:30;99035.75;;;14.57;50.22
27685;BME280;46113;50.130;8.526;2023-05-12T11:15:03;99047.16;;;14.12;51.58
27685;BME280;46113;50.130;8.526;2023-05-12T11:17:30;99021.97;;;14.52;53.11
27685;BME280;46113;50.130;8.526;2023-05-12T11:19:58;99036.81;;;14.89;51.33
27685;BME280;46113;50.130;8.526;2023-05-12T11:22:27;99030.91;;;14.74;51.55
27685;BME280;46113;50.130;8.526;2023-05-12T11:24:53;99035.41;;;15.40;49.33
27685;BME280;46113;50.130;8.526;2023-05-12T11:27:21;99045.53;;;14.91;48.38
27685;BME280;46113;50.130;8.526;2023-05-12T11:30:00;99032.53;;;15.64;46.81
27685;BME280;46113;50.130;8.526;2023-05-12T11:32:28;99025.66;;;15.18;48.85
27685;BME280;46113;50.130;8.526;2023-05-12T11:35:12;99031.16;;;15.49;47.61
27685;BME280;46113;50.130;8.526;2023-05-12T11:37:40;99035.53;;;15.39;49.22
27685;BME280;46113;50.130;8.526;2023-05-12T11:40:18;99037.63;;;15.35;48.84
27685;BME280;46113;50.130;8.526;2023-05-12T11:42:46;99039.78;;;15.41;49.77
27685;BME280;46113;50.130;8.526;2023-05-12T11:45:27;99035.66;;;15.48;48.02
27685;BME280;46113;50.130;8.526;2023-05-12T11:48:12;99042.75;;;14.47;49.58
27685;BME280;46113;50.130;8.526;2023-05-12T11:50:44;99028.94;;;15.10;48.70
27685;BME280;46113;50.130;8.526;2023-05-12T11:53:16;99038.66;;;14.77;48.06
27685;BME280;46113;50.130;8.526;2023-05-12T11:55:52;99048.69;;;15.07;50.03
27685;BME280;46113;50.130;8.526;2023-05-12T11:58:25;99044.91;;;15.33;48.66
27685;BME280;46113;50.130;8.526;2023-05-12T12:00:53;99052.91;;;15.66;49.26
27685;BME280;46113;50.130;8.526;2023-05-12T12:03:20;99050.47;;;15.30;49.50
27685;BME280;46113;50.130;8.526;2023-05-12T12:06:05;99042.94;;;15.35;48.34
27685;BME280;46113;50.130;8.526;2023-05-12T12:08:36;99061.00;;;15.31;48.11
27685;BME280;46113;50.130;8.526;2023-05-12T12:11:06;99061.97;;;15.74;48.93
27685;BME280;46113;50.130;8.526;2023-05-12T12:13:32;99053.38;;;15.27;47.49
27685;BME280;46113;50.130;8.526;2023-05-12T12:15:59;99058.75;;;15.04;48.66
27685;BME280;46113;50.130;8.526;2023-05-12T12:18:26;99045.84;;;15.43;47.47
27685;BME280;46113;50.130;8.526;2023-05-12T12:20:53;99050.31;;;15.75;47.47
27685;BME280;46113;50.130;8.526;2023-05-12T12:23:19;99064.38;;;15.33;46.22
27685;BME280;46113;50.130;8.526;2023-05-12T12:25:46;99053.28;;;14.82;46.94
27685;BME280;46113;50.130;8.526;2023-05-12T12:28:13;99045.69;;;15.56;48.66
27685;BME280;46113;50.130;8.526;2023-05-12T12:30:40;99049.63;;;15.62;48.94
27685;BME280;46113;50.130;8.526;2023-05-12T12:33:06;99043.50;;;15.83;49.26
27685;BME280;46113;50.130;8.526;2023-05-12T12:35:33;99042.53;;;16.16;48.13
27685;BME280;46113;50.130;8.526;2023-05-12T12:38:00;99056.50;;;15.76;47.58
27685;BME280;46113;50.130;8.526;2023-05-12T12:40:27;99050.06;;;16.11;47.26
27685;BME280;46113;50.130;8.526;2023-05-12T12:42:54;99044.34;;;15.83;46.97
27685;BME280;46113;50.130;8.526;2023-05-12T12:45:20;99048.75;;;15.40;46.66
27685;BME280;46113;50.130;8.526;2023-05-12T12:47:50;99051.91;;;15.34;48.56
27685;BME280;46113;50.130;8.526;2023-05-12T12:50:17;99045.66;;;15.23;48.10
27685;BME280;46113;50.130;8.526;2023-05-12T12:52:44;99047.34;;;15.02;47.77
27685;BME280;46113;50.130;8.526;2023-05-12T12:55:11;99062.13;;;14.94;47.62
27685;BME280;46113;50.130;8.526;2023-05-12T12:57:38;99038.78;;;14.98;46.81
27685;BME280;46113;50.130;8.526;2023-05-12T13:00:05;99049.25;;;15.34;46.45
27685;BME280;46113;50.130;8.526;2023-05-12T13:02:34;99046.88;;;14.74;44.31
27685;BME280;46113;50.130;8.526;2023-05-12T13:05:01;99052.16;;;14.96;45.83
27685;BME280;46113;50.130;8.526;2023-05-12T13:07:29;99044.91;;;15.21;46.50
27685;BME280;46113;50.130;8.526;2023-05-12T13:09:56;99041.53;;;14.96;44.76
27685;BME280;46113;50.130;8.526;2023-05-12T13:12:23;99042.28;;;15.10;45.69
27685;BME280;46113;50.130;8.526;2023-05-12T13:14:50;99044.06;;;15.21;46.41